createdAt,value
2023-02-15T00:01:46.438Z,49.58
2023-02-15T00:04:16.959Z,54.85
2023-02-15T00:06:43.170Z,53.57
2023-02-15T00:09:10.002Z,56.25
2023-02-15T00:11:44.508Z,51.78
2023-02-15T00:14:12.855Z,53.33
2023-02-15T00:16:40.016Z,56.13
2023-02-15T00:19:06.755Z,56.30
2023-02-15T00:21:34.098Z,52.97
2023-02-15T00:24:01.134Z,54.45
2023-02-15T00:26:27.519Z,55.28
2023-02-15T00:28:54.311Z,51.00
2023-02-15T00:31:21.008Z,54.20
2023-02-15T00:33:47.290Z,55.95
2023-02-15T00:36:13.699Z,53.50
2023-02-15T00:38:40.006Z,56.50
2023-02-15T00:41:06.892Z,53.35
2023-02-15T00:43:33.864Z,49.58
2023-02-15T00:46:00.734Z,53.03
2023-02-15T00:48:27.277Z,58.42
2023-02-15T00:50:54.420Z,52.95
2023-02-15T00:53:20.770Z,57.85
2023-02-15T00:55:47.374Z,53.55
2023-02-15T00:58:13.942Z,53.00
2023-02-15T01:00:40.707Z,53.65
2023-02-15T01:03:06.917Z,47.95
2023-02-15T01:05:33.306Z,54.45
2023-02-15T01:08:00.041Z,58.10
2023-02-15T01:10:26.469Z,55.08
2023-02-15T01:12:53.217Z,54.17
2023-02-15T01:15:19.592Z,53.10
2023-02-15T01:17:51.983Z,54.15
2023-02-15T01:20:18.914Z,52.95
2023-02-15T01:22:45.117Z,53.05
2023-02-15T01:25:11.342Z,56.72
2023-02-15T01:27:37.564Z,53.38
2023-02-15T01:30:05.454Z,54.58
2023-02-15T01:32:31.931Z,61.60
2023-02-15T01:34:58.157Z,57.63
2023-02-15T01:37:24.364Z,55.65
2023-02-15T01:39:50.602Z,59.63
2023-02-15T01:42:21.706Z,54.55
2023-02-15T01:44:49.764Z,59.25
2023-02-15T01:47:37.451Z,55.53
2023-02-15T01:50:15.638Z,56.50
2023-02-15T01:52:44.750Z,57.33
2023-02-15T01:55:11.259Z,49.03
2023-02-15T01:57:37.623Z,50.95
2023-02-15T02:00:05.731Z,54.83
2023-02-15T02:02:57.719Z,58.88
2023-02-15T02:05:24.518Z,52.47
2023-02-15T02:07:52.538Z,58.88
2023-02-15T02:10:20.197Z,55.80
2023-02-15T02:12:47.517Z,54.80
2023-02-15T02:15:14.104Z,53.30
2023-02-15T02:17:50.945Z,54.42
2023-02-15T02:20:17.696Z,51.15
2023-02-15T02:23:02.365Z,50.92
2023-02-15T02:25:40.858Z,55.97
2023-02-15T02:28:19.187Z,53.33
2023-02-15T02:30:51.534Z,55.40
2023-02-15T02:33:29.819Z,59.28
2023-02-15T02:35:56.037Z,52.67
2023-02-15T02:38:29.171Z,56.80
2023-02-15T02:41:06.569Z,53.30
2023-02-15T02:43:44.432Z,55.90
2023-02-15T02:46:21.320Z,57.28
2023-02-15T02:48:48.970Z,57.00
2023-02-15T02:51:21.076Z,56.22
2023-02-15T02:53:47.479Z,56.25
2023-02-15T02:56:22.251Z,55.30
2023-02-15T02:58:50.666Z,58.92
2023-02-15T03:01:21.058Z,62.28
2023-02-15T03:03:52.034Z,53.93
2023-02-15T03:06:25.664Z,52.45
2023-02-15T03:08:54.252Z,52.47
2023-02-15T03:11:20.472Z,51.78
2023-02-15T03:13:48.462Z,52.17
2023-02-15T03:16:28.105Z,57.72
2023-02-15T03:19:10.971Z,49.42
2023-02-15T03:21:37.204Z,54.53
2023-02-15T03:24:09.283Z,56.80
2023-02-15T03:26:37.012Z,56.78
2023-02-15T03:29:04.938Z,54.25
2023-02-15T03:31:32.982Z,52.58
2023-02-15T03:34:00.911Z,58.05
2023-02-15T03:36:31.762Z,54.92
2023-02-15T03:39:16.727Z,60.90
2023-02-15T03:41:49.282Z,54.88
2023-02-15T03:44:19.901Z,53.22
2023-02-15T03:46:53.754Z,52.17
2023-02-15T03:49:40.364Z,54.78
2023-02-15T03:52:08.036Z,50.60
2023-02-15T03:54:44.399Z,51.13
2023-02-15T03:57:33.598Z,55.42
2023-02-15T04:00:19.444Z,57.33
2023-02-15T04:02:50.807Z,55.30
2023-02-15T04:07:43.206Z,52.78
2023-02-15T04:10:28.087Z,59.00
2023-02-15T04:12:54.319Z,51.38
2023-02-15T04:15:39.383Z,52.97
2023-02-15T04:18:05.655Z,58.65
2023-02-15T04:20:50.472Z,53.10
2023-02-15T04:23:35.375Z,57.70
2023-02-15T04:26:04.360Z,58.53
2023-02-15T04:28:30.558Z,57.53
2023-02-15T04:30:56.873Z,57.22
2023-02-15T04:33:23.106Z,52.60
2023-02-15T04:35:49.359Z,53.03
2023-02-15T04:38:15.604Z,61.55
2023-02-15T04:40:41.855Z,54.30
2023-02-15T04:43:08.090Z,51.88
2023-02-15T04:45:34.333Z,55.45
2023-02-15T04:48:00.623Z,56.08
2023-02-15T04:50:26.840Z,53.60
2023-02-15T04:52:53.029Z,55.95
2023-02-15T04:55:19.319Z,52.63
2023-02-15T04:57:46.617Z,50.58
2023-02-15T05:00:13.067Z,54.40
2023-02-15T05:02:39.259Z,49.05
2023-02-15T05:05:05.685Z,48.60
2023-02-15T05:07:31.919Z,48.30
2023-02-15T05:09:58.137Z,52.60
2023-02-15T05:12:24.369Z,51.75
2023-02-15T05:14:50.593Z,53.60
2023-02-15T05:17:16.801Z,49.08
2023-02-15T05:19:43.076Z,49.58
2023-02-15T05:22:09.294Z,49.03
2023-02-15T05:24:54.100Z,45.90
2023-02-15T05:27:38.876Z,52.05
2023-02-15T05:30:05.560Z,54.65
2023-02-15T05:32:31.890Z,50.33
2023-02-15T05:34:58.301Z,52.40
2023-02-15T05:37:24.510Z,50.17
2023-02-15T05:39:50.766Z,50.38
2023-02-15T05:42:17.014Z,45.90
2023-02-15T05:44:43.481Z,50.53
2023-02-15T05:47:09.757Z,52.75
2023-02-15T05:49:36.167Z,50.83
2023-02-15T05:52:02.429Z,48.47
2023-02-15T05:54:28.704Z,46.40
2023-02-15T05:56:54.985Z,47.08
2023-02-15T05:59:21.189Z,49.28
2023-02-15T06:01:47.384Z,45.80
2023-02-15T06:04:13.994Z,44.45
2023-02-15T06:06:40.230Z,47.13
2023-02-15T06:09:06.434Z,50.88
2023-02-15T06:11:32.680Z,46.25
2023-02-15T06:13:58.867Z,44.35
2023-02-15T06:16:25.093Z,52.03
2023-02-15T06:18:53.608Z,47.88
2023-02-15T06:21:20.083Z,42.45
2023-02-15T06:23:46.309Z,47.03
2023-02-15T06:26:12.606Z,44.72
2023-02-15T06:28:38.898Z,43.88
2023-02-15T06:31:05.278Z,43.67
2023-02-15T06:33:31.568Z,42.80
2023-02-15T06:35:57.791Z,40.83
2023-02-15T06:38:23.974Z,53.22
2023-02-15T06:40:50.212Z,45.72
2023-02-15T06:43:16.599Z,45.40
2023-02-15T06:45:43.194Z,46.55
2023-02-15T06:48:09.789Z,42.33
2023-02-15T06:50:36.037Z,46.63
2023-02-15T06:53:02.222Z,46.15
2023-02-15T06:55:28.441Z,45.03
2023-02-15T06:57:54.710Z,42.28
2023-02-15T07:00:22.954Z,45.95
2023-02-15T07:02:49.228Z,46.22
2023-02-15T07:05:15.571Z,42.13
2023-02-15T07:07:41.880Z,47.10
2023-02-15T07:10:08.277Z,44.67
2023-02-15T07:12:43.784Z,46.65
2023-02-15T07:15:10.720Z,46.60
2023-02-15T07:17:37.282Z,39.33
2023-02-15T07:20:08.691Z,41.55
2023-02-15T07:25:04.402Z,43.17
2023-02-15T07:27:31.457Z,45.15
2023-02-15T07:29:57.736Z,45.00
2023-02-15T07:32:23.984Z,42.13
2023-02-15T07:34:50.349Z,39.72
2023-02-15T07:37:16.565Z,41.33
2023-02-15T07:39:42.786Z,34.53
2023-02-15T07:42:09.007Z,37.13
2023-02-15T07:44:35.242Z,36.65
2023-02-15T07:47:01.458Z,35.55
2023-02-15T07:49:27.984Z,36.35
2023-02-15T07:51:54.294Z,35.45
2023-02-15T07:54:20.538Z,35.95
2023-02-15T07:56:46.763Z,38.72
2023-02-15T07:59:13.032Z,34.25
2023-02-15T08:01:39.765Z,38.22
2023-02-15T08:04:06.892Z,42.00
2023-02-15T08:06:34.281Z,42.72
2023-02-15T08:09:01.802Z,37.92
2023-02-15T08:11:40.132Z,38.33
2023-02-15T08:14:07.619Z,38.03
2023-02-15T08:16:35.151Z,41.38
2023-02-15T08:19:03.658Z,38.95
2023-02-15T08:21:30.462Z,36.53
2023-02-15T08:23:57.255Z,37.20
2023-02-15T08:26:23.951Z,36.70
2023-02-15T08:28:51.440Z,35.60
2023-02-15T08:31:18.112Z,38.25
2023-02-15T08:33:44.890Z,38.47
2023-02-15T08:36:15.855Z,37.60
2023-02-15T08:38:42.543Z,33.97
2023-02-15T08:41:19.921Z,38.20
2023-02-15T08:43:47.542Z,39.40
2023-02-15T08:46:14.375Z,40.47
2023-02-15T08:48:40.748Z,38.17
2023-02-15T08:51:17.634Z,37.05
2023-02-15T08:53:45.555Z,35.13
2023-02-15T08:56:12.198Z,33.03
2023-02-15T08:58:38.916Z,31.98
2023-02-15T09:01:18.705Z,27.42
2023-02-15T09:03:46.135Z,27.05
2023-02-15T09:06:12.710Z,27.05
2023-02-15T09:08:39.041Z,26.52
2023-02-15T09:11:06.034Z,24.88
2023-02-15T09:13:32.301Z,23.15
2023-02-15T09:16:02.539Z,25.50
2023-02-15T09:18:30.430Z,23.90
2023-02-15T09:20:56.832Z,21.23
2023-02-15T09:23:27.249Z,24.38
2023-02-15T09:25:53.726Z,22.47
2023-02-15T09:28:20.003Z,20.63
2023-02-15T09:30:46.270Z,20.88
2023-02-15T09:33:12.579Z,21.08
2023-02-15T09:35:38.798Z,20.08
2023-02-15T09:38:05.008Z,20.25
2023-02-15T09:40:36.364Z,18.98
2023-02-15T09:43:02.546Z,17.88
2023-02-15T09:45:41.225Z,19.52
2023-02-15T09:48:46.197Z,17.83
2023-02-15T09:51:18.603Z,18.52
2023-02-15T09:53:55.589Z,19.40
2023-02-15T09:56:27.924Z,18.33
2023-02-15T09:59:13.249Z,18.63
2023-02-15T10:01:48.666Z,19.80
2023-02-15T10:04:20.862Z,20.98
2023-02-15T10:06:47.148Z,18.58
2023-02-15T10:09:34.103Z,20.17
2023-02-15T10:12:22.189Z,18.15
2023-02-15T10:14:51.468Z,19.35
2023-02-15T10:17:42.720Z,21.30
2023-02-15T10:20:27.913Z,19.35
2023-02-15T10:23:13.131Z,20.73
2023-02-15T10:25:46.622Z,21.20
2023-02-15T10:28:19.196Z,21.13
2023-02-15T10:30:50.105Z,20.15
2023-02-15T10:33:19.157Z,20.63
2023-02-15T10:35:45.413Z,18.30
2023-02-15T10:38:28.381Z,20.85
2023-02-15T10:41:00.739Z,21.23
2023-02-15T10:43:36.134Z,19.73
2023-02-15T10:46:13.245Z,17.50
2023-02-15T10:48:45.728Z,16.40
2023-02-15T10:51:15.440Z,15.73
2023-02-15T10:53:47.691Z,20.45
2023-02-15T10:56:37.217Z,16.20
2023-02-15T10:59:09.522Z,17.65
2023-02-15T11:01:41.639Z,18.15
2023-02-15T11:04:10.998Z,18.90
2023-02-15T11:06:40.010Z,15.13
2023-02-15T11:09:10.840Z,17.38
2023-02-15T11:11:40.217Z,18.50
2023-02-15T11:14:15.463Z,18.10
2023-02-15T11:16:45.268Z,16.20
2023-02-15T11:19:18.507Z,19.08
2023-02-15T11:21:46.567Z,17.90
2023-02-15T11:24:14.168Z,18.35
2023-02-15T11:26:43.706Z,16.23
2023-02-15T11:29:09.945Z,15.32
2023-02-15T11:31:42.713Z,17.52
2023-02-15T11:34:15.254Z,15.32
2023-02-15T11:36:41.908Z,15.85
2023-02-15T11:39:16.392Z,15.75
2023-02-15T11:41:45.341Z,15.90
2023-02-15T11:44:11.620Z,15.07
2023-02-15T11:46:37.960Z,20.85
2023-02-15T11:49:10.091Z,16.05
2023-02-15T11:51:36.660Z,16.73
2023-02-15T11:54:03.587Z,15.82
2023-02-15T11:56:32.382Z,15.02
2023-02-15T11:59:04.837Z,14.27
2023-02-15T12:01:32.999Z,13.35
2023-02-15T12:04:08.994Z,13.93
2023-02-15T12:06:39.628Z,15.10
2023-02-15T12:09:05.791Z,14.07
2023-02-15T12:11:38.977Z,15.95
2023-02-15T12:14:09.870Z,14.73
2023-02-15T12:16:42.926Z,16.92
2023-02-15T12:19:18.614Z,16.27
2023-02-15T12:21:45.644Z,14.55
2023-02-15T12:24:19.220Z,16.52
2023-02-15T12:26:45.766Z,14.73
2023-02-15T12:29:19.292Z,15.32
2023-02-15T12:31:46.987Z,15.88
2023-02-15T12:34:23.988Z,14.77
2023-02-15T12:36:55.179Z,17.58
2023-02-15T12:39:23.050Z,14.05
2023-02-15T12:41:55.214Z,15.40
2023-02-15T12:44:25.065Z,14.95
2023-02-15T12:46:57.321Z,16.05
2023-02-15T12:49:23.686Z,14.07
2023-02-15T12:51:52.010Z,16.77
2023-02-15T12:54:39.405Z,17.10
2023-02-15T12:57:23.122Z,15.52
2023-02-15T12:59:50.434Z,14.90
2023-02-15T13:02:21.022Z,15.95
2023-02-15T13:04:51.109Z,13.80
2023-02-15T13:07:17.359Z,17.52
2023-02-15T13:09:44.070Z,15.82
2023-02-15T13:12:18.601Z,15.15
2023-02-15T13:14:51.755Z,15.05
2023-02-15T13:17:18.613Z,18.15
2023-02-15T13:19:49.765Z,17.60
2023-02-15T13:22:18.567Z,15.43
2023-02-15T13:24:49.254Z,14.52
2023-02-15T13:27:17.481Z,16.70
2023-02-15T13:29:44.794Z,15.43
2023-02-15T13:32:28.173Z,16.75
2023-02-15T13:34:57.727Z,17.52
2023-02-15T13:37:32.285Z,18.15
2023-02-15T13:40:08.131Z,17.45
2023-02-15T13:42:38.994Z,17.38
2023-02-15T13:45:24.497Z,15.07
2023-02-15T13:47:53.309Z,15.25
2023-02-15T13:50:29.989Z,15.20
2023-02-15T13:53:15.047Z,14.82
2023-02-15T13:55:45.954Z,14.95
2023-02-15T13:58:35.282Z,17.38
2023-02-15T14:01:15.680Z,19.65
2023-02-15T14:03:49.568Z,15.60
2023-02-15T14:06:15.859Z,14.32
2023-02-15T14:08:52.653Z,15.77
2023-02-15T14:11:30.858Z,15.13
2023-02-15T14:14:02.371Z,15.98
2023-02-15T14:19:05.893Z,15.25
2023-02-15T14:21:33.292Z,17.63
2023-02-15T14:24:02.364Z,16.90
2023-02-15T14:26:32.895Z,15.35
2023-02-15T14:29:08.716Z,15.95
2023-02-15T14:31:37.742Z,16.83
2023-02-15T14:34:04.940Z,19.25
2023-02-15T14:36:31.537Z,18.95
2023-02-15T14:39:06.595Z,19.08
2023-02-15T14:41:38.679Z,17.38
2023-02-15T14:44:12.310Z,21.17
2023-02-15T14:46:38.671Z,16.92
2023-02-15T14:49:12.314Z,20.25
2023-02-15T14:51:43.878Z,18.88
2023-02-15T14:56:36.620Z,19.92
2023-02-15T14:59:12.002Z,19.30
2023-02-15T15:01:39.188Z,21.45
2023-02-15T15:04:07.194Z,18.50
2023-02-15T15:06:34.577Z,21.15
2023-02-15T15:09:21.046Z,21.48
2023-02-15T15:11:48.308Z,20.17
2023-02-15T15:14:32.949Z,18.30
2023-02-15T15:17:00.244Z,20.55
2023-02-15T15:19:52.573Z,19.83
2023-02-15T15:22:24.446Z,18.05
2023-02-15T15:27:36.881Z,21.35
2023-02-15T15:30:03.723Z,22.42
2023-02-15T15:32:32.980Z,24.55
2023-02-15T15:35:02.175Z,22.05
2023-02-15T15:37:28.390Z,22.13
2023-02-15T15:40:14.021Z,27.08
2023-02-15T15:42:59.140Z,25.02
2023-02-15T15:45:43.667Z,23.95
2023-02-15T15:48:22.141Z,22.73
2023-02-15T15:50:53.279Z,24.60
2023-02-15T15:53:21.706Z,22.17
2023-02-15T15:55:49.706Z,21.80
2023-02-15T15:58:17.570Z,20.95
2023-02-15T16:00:59.138Z,19.65
2023-02-15T16:03:26.348Z,22.02
2023-02-15T16:05:56.383Z,20.38
2023-02-15T16:08:33.665Z,20.65
2023-02-15T16:11:00.949Z,22.60
2023-02-15T16:13:27.323Z,22.98
2023-02-15T16:15:54.994Z,22.25
2023-02-15T16:18:26.258Z,21.45
2023-02-15T16:20:58.012Z,25.75
2023-02-15T16:23:24.218Z,23.00
2023-02-15T16:25:59.758Z,21.77
2023-02-15T16:28:25.967Z,23.67
2023-02-15T16:31:07.750Z,24.90
2023-02-15T16:33:38.320Z,21.20
2023-02-15T16:36:05.694Z,20.52
2023-02-15T16:38:41.120Z,22.05
2023-02-15T16:41:08.298Z,22.50
2023-02-15T16:43:34.589Z,25.25
2023-02-15T16:46:05.711Z,22.35
2023-02-15T16:48:32.848Z,24.40
2023-02-15T16:50:59.811Z,25.13
2023-02-15T16:53:27.703Z,23.38
2023-02-15T16:55:59.249Z,22.98
2023-02-15T17:00:51.966Z,24.90
2023-02-15T17:03:18.846Z,23.05
2023-02-15T17:05:46.354Z,22.23
2023-02-15T17:08:24.271Z,21.65
2023-02-15T17:10:59.987Z,22.35
2023-02-15T17:13:27.321Z,22.48
2023-02-15T17:16:00.344Z,22.55
2023-02-15T17:18:28.072Z,21.73
2023-02-15T17:20:59.803Z,19.88
2023-02-15T17:23:29.602Z,23.52
2023-02-15T17:25:56.043Z,22.67
2023-02-15T17:28:24.004Z,21.65
2023-02-15T17:30:51.611Z,21.50
2023-02-15T17:33:20.664Z,21.33
2023-02-15T17:36:02.655Z,22.45
2023-02-15T17:38:28.859Z,21.00
2023-02-15T17:40:55.126Z,22.30
2023-02-15T17:43:21.323Z,24.67
2023-02-15T17:45:48.913Z,20.50
2023-02-15T17:48:22.715Z,22.88
2023-02-15T17:50:49.247Z,21.50
2023-02-15T17:53:19.040Z,24.00
2023-02-15T17:55:45.685Z,20.20
2023-02-15T17:58:12.889Z,23.92
2023-02-15T18:01:00.215Z,19.55
2023-02-15T18:03:47.993Z,19.17
2023-02-15T18:06:32.996Z,22.80
2023-02-15T18:09:18.078Z,23.13
2023-02-15T18:11:48.560Z,21.92
2023-02-15T18:14:14.789Z,24.45
2023-02-15T18:16:43.132Z,22.88
2023-02-15T18:19:11.786Z,23.48
2023-02-15T18:21:38.042Z,22.67
2023-02-15T18:24:04.242Z,24.38
2023-02-15T18:26:30.442Z,23.38
2023-02-15T18:28:56.689Z,21.02
2023-02-15T18:31:24.193Z,21.58
2023-02-15T18:33:52.856Z,23.98
2023-02-15T18:36:32.404Z,25.33
2023-02-15T18:38:59.162Z,23.73
2023-02-15T18:41:27.622Z,21.80
2023-02-15T18:43:55.316Z,24.90
2023-02-15T18:46:21.937Z,24.08
2023-02-15T18:48:48.381Z,22.15
2023-02-15T18:51:21.843Z,23.52
2023-02-15T18:53:49.990Z,22.48
2023-02-15T18:56:17.355Z,22.33
2023-02-15T18:58:45.682Z,22.15
2023-02-15T19:01:20.171Z,23.20
2023-02-15T19:03:47.738Z,21.83
2023-02-15T19:06:15.907Z,26.25
2023-02-15T19:08:44.080Z,23.05
2023-02-15T19:11:22.327Z,23.42
2023-02-15T19:13:49.301Z,23.73
2023-02-15T19:16:22.861Z,23.70
2023-02-15T19:18:49.083Z,24.40
2023-02-15T19:21:15.689Z,23.10
2023-02-15T19:23:41.940Z,27.17
2023-02-15T19:26:08.181Z,20.75
2023-02-15T19:28:34.532Z,22.20
2023-02-15T19:31:00.870Z,23.55
2023-02-15T19:33:27.152Z,21.45
2023-02-15T19:35:56.138Z,24.33
2023-02-15T19:38:27.368Z,22.42
2023-02-15T19:40:55.988Z,23.67
2023-02-15T19:43:27.603Z,22.10
2023-02-15T19:45:53.915Z,23.60
2023-02-15T19:48:20.246Z,24.17
2023-02-15T19:50:46.967Z,21.10
2023-02-15T19:53:33.421Z,23.88
2023-02-15T19:55:59.698Z,24.13
2023-02-15T19:58:25.948Z,23.75
2023-02-15T20:00:52.211Z,22.50
2023-02-15T20:03:18.505Z,25.35
2023-02-15T20:05:45.018Z,23.95
2023-02-15T20:08:16.529Z,25.30
2023-02-15T20:13:12.619Z,25.88
2023-02-15T20:15:39.484Z,25.10
2023-02-15T20:18:06.679Z,25.17
2023-02-15T20:20:38.172Z,25.88
2023-02-15T20:25:31.966Z,25.92
2023-02-15T20:27:59.302Z,26.95
2023-02-15T20:30:27.241Z,28.23
2023-02-15T20:32:53.646Z,26.58
2023-02-15T20:35:21.141Z,28.08
2023-02-15T20:37:48.292Z,26.35
2023-02-15T20:40:22.064Z,24.77
2023-02-15T20:42:48.611Z,25.65
2023-02-15T20:45:22.258Z,29.95
2023-02-15T20:47:49.067Z,26.98
2023-02-15T20:50:16.272Z,27.58
2023-02-15T20:52:43.035Z,27.40
2023-02-15T20:55:13.544Z,29.65
2023-02-15T20:57:39.765Z,28.02
2023-02-15T21:00:07.014Z,29.83
2023-02-15T21:02:33.250Z,26.60
2023-02-15T21:05:00.551Z,24.65
2023-02-15T21:07:26.850Z,24.65
2023-02-15T21:09:54.105Z,27.67
2023-02-15T21:12:21.959Z,26.60
2023-02-15T21:14:48.243Z,26.90
2023-02-15T21:17:16.391Z,25.45
2023-02-15T21:19:42.704Z,27.38
2023-02-15T21:22:12.094Z,30.15
2023-02-15T21:24:38.332Z,31.45
2023-02-15T21:27:06.684Z,27.02
2023-02-15T21:29:33.011Z,26.00
2023-02-15T21:32:00.380Z,27.92
2023-02-15T21:34:26.696Z,27.83
2023-02-15T21:36:53.420Z,25.08
2023-02-15T21:39:24.234Z,23.65
2023-02-15T21:42:09.690Z,27.60
2023-02-15T21:44:54.801Z,26.83
2023-02-15T21:47:43.845Z,30.23
2023-02-15T21:50:30.863Z,30.17
2023-02-15T21:52:57.659Z,25.70
2023-02-15T21:55:24.030Z,26.23
2023-02-15T21:57:50.342Z,27.33
2023-02-15T22:00:21.244Z,28.52
2023-02-15T22:02:48.518Z,26.55
2023-02-15T22:05:19.075Z,30.00
2023-02-15T22:07:45.624Z,31.37
2023-02-15T22:10:12.327Z,29.92
2023-02-15T22:12:39.197Z,29.88
2023-02-15T22:15:05.693Z,32.72
2023-02-15T22:17:34.282Z,31.75
2023-02-15T22:20:00.498Z,29.63
2023-02-15T22:22:26.882Z,36.00
2023-02-15T22:24:53.123Z,28.98
2023-02-15T22:27:21.148Z,26.63
2023-02-15T22:29:48.509Z,31.48
2023-02-15T22:32:22.381Z,29.15
2023-02-15T22:34:49.249Z,29.27
2023-02-15T22:37:15.657Z,30.77
2023-02-15T22:39:41.868Z,30.67
2023-02-15T22:42:25.114Z,32.17
2023-02-15T22:44:53.217Z,33.92
2023-02-15T22:47:23.746Z,30.98
2023-02-15T22:49:50.232Z,32.67
2023-02-15T22:52:16.753Z,29.63
2023-02-15T22:54:42.947Z,29.50
2023-02-15T22:57:15.949Z,34.55
2023-02-15T22:59:42.202Z,37.15
2023-02-15T23:02:10.485Z,32.05
2023-02-15T23:04:36.740Z,30.42
2023-02-15T23:07:05.979Z,34.78
2023-02-15T23:09:32.603Z,32.58
2023-02-15T23:11:58.860Z,36.78
2023-02-15T23:14:27.309Z,35.75
2023-02-15T23:16:53.984Z,31.95
2023-02-15T23:19:20.601Z,32.35
2023-02-15T23:21:46.822Z,35.90
2023-02-15T23:24:22.545Z,35.95
2023-02-15T23:26:50.421Z,33.38
2023-02-15T23:29:21.445Z,34.50
2023-02-15T23:31:54.289Z,31.63
2023-02-15T23:34:30.970Z,36.35
2023-02-15T23:36:57.241Z,32.75
2023-02-15T23:39:43.796Z,37.42
2023-02-15T23:42:13.114Z,31.15
2023-02-15T23:44:39.589Z,30.25
2023-02-15T23:47:06.456Z,31.90
2023-02-15T23:49:32.696Z,33.75
2023-02-15T23:52:02.071Z,34.38
2023-02-15T23:54:28.279Z,30.98
2023-02-15T23:56:57.330Z,34.72
2023-02-15T23:59:24.838Z,33.22
